Visby Airport

Airport
ICAO code: 
ESSV
IATA Code: 
VBY
Summary
ICAO Region: 
EUR
Territory: 
Location: 
Visby, Gotland,
Serving: 
Visby
Elevation: 
164 ft
Coordinates: 
Aerial View: 
57° 39' 44.439" N, 18° 20' 38.117" E
Metar
Observation
ESSV 260720Z 22014KT 9999 FEW023 14/09 Q1004
Station
Visby Flygplats
Date/Time
2022-05-26 07:20:00
Wind direction
220°
Wind speed
14 kts
Lowest cloud amount
few clouds
Temperature
14°C
Dew point
9°C
Humidity
71%
QNH
1004 hPa
Weather condition
n/a

Description

Visby Airport is located about 3.5 km north of Visby, Gotland, Sweden.

Climatology

Temperate Marine climate/Oceanic climate (Köppen climate classification Cfb). Moderately cool summer and comparatively warm winter.

Runways

Designator Length Width Surface Rops
10/28 1101 40 GRS No/No
3/21 2000 45 ASP Yes/Yes
Airport map: 
Aerial View: 

SKYbrary Partners:

Safety knowledge contributed by: